sensor_id;sensor_type;location;lat;lon;timestamp;P1;durP1;ratioP1;P2;durP2;ratioP2
38023;SDS011;23834;48.080;11.682;2022-12-07T00:01:23;4.90;;;4.40;;
38023;SDS011;23834;48.080;11.682;2022-12-07T00:03:49;5.17;;;4.67;;
38023;SDS011;23834;48.080;11.682;2022-12-07T00:06:16;5.30;;;4.90;;
38023;SDS011;23834;48.080;11.682;2022-12-07T00:08:41;5.00;;;4.50;;
38023;SDS011;23834;48.080;11.682;2022-12-07T00:11:11;6.27;;;4.50;;
38023;SDS011;23834;48.080;11.682;2022-12-07T00:13:36;5.77;;;5.13;;
38023;SDS011;23834;48.080;11.682;2022-12-07T00:16:03;4.60;;;4.03;;
38023;SDS011;23834;48.080;11.682;2022-12-07T00:18:29;4.97;;;4.40;;
38023;SDS011;23834;48.080;11.682;2022-12-07T00:21:04;5.20;;;4.70;;
38023;SDS011;23834;48.080;11.682;2022-12-07T00:23:30;4.60;;;4.20;;
38023;SDS011;23834;48.080;11.682;2022-12-07T00:25:55;5.00;;;4.50;;
38023;SDS011;23834;48.080;11.682;2022-12-07T00:28:20;4.60;;;4.17;;
38023;SDS011;23834;48.080;11.682;2022-12-07T00:30:45;4.77;;;4.37;;
38023;SDS011;23834;48.080;11.682;2022-12-07T00:33:11;5.10;;;4.60;;
38023;SDS011;23834;48.080;11.682;2022-12-07T00:35:36;5.47;;;4.90;;
38023;SDS011;23834;48.080;11.682;2022-12-07T00:38:01;4.70;;;4.30;;
38023;SDS011;23834;48.080;11.682;2022-12-07T00:40:26;4.70;;;4.20;;
38023;SDS011;23834;48.080;11.682;2022-12-07T00:42:51;5.20;;;4.53;;
38023;SDS011;23834;48.080;11.682;2022-12-07T00:45:16;4.50;;;4.17;;
38023;SDS011;23834;48.080;11.682;2022-12-07T00:47:42;5.10;;;4.60;;
38023;SDS011;23834;48.080;11.682;2022-12-07T00:50:07;4.90;;;4.50;;
38023;SDS011;23834;48.080;11.682;2022-12-07T00:52:33;4.70;;;4.30;;
38023;SDS011;23834;48.080;11.682;2022-12-07T00:54:58;4.70;;;4.13;;
38023;SDS011;23834;48.080;11.682;2022-12-07T00:57:23;4.67;;;4.27;;
38023;SDS011;23834;48.080;11.682;2022-12-07T00:59:48;4.40;;;4.00;;
38023;SDS011;23834;48.080;11.682;2022-12-07T01:02:13;4.33;;;3.90;;
38023;SDS011;23834;48.080;11.682;2022-12-07T01:04:39;4.50;;;4.10;;
38023;SDS011;23834;48.080;11.682;2022-12-07T01:07:04;4.40;;;4.00;;
38023;SDS011;23834;48.080;11.682;2022-12-07T01:09:29;4.40;;;3.97;;
38023;SDS011;23834;48.080;11.682;2022-12-07T01:11:54;4.13;;;3.83;;
38023;SDS011;23834;48.080;11.682;2022-12-07T01:14:19;4.53;;;4.13;;
38023;SDS011;23834;48.080;11.682;2022-12-07T01:16:44;4.80;;;3.80;;
38023;SDS011;23834;48.080;11.682;2022-12-07T01:19:10;4.80;;;4.30;;
38023;SDS011;23834;48.080;11.682;2022-12-07T01:21:35;4.50;;;4.10;;
38023;SDS011;23834;48.080;11.682;2022-12-07T01:24:02;4.13;;;3.83;;
38023;SDS011;23834;48.080;11.682;2022-12-07T01:26:27;4.33;;;3.93;;
38023;SDS011;23834;48.080;11.682;2022-12-07T01:28:53;3.77;;;3.47;;
38023;SDS011;23834;48.080;11.682;2022-12-07T01:31:20;4.23;;;3.87;;
38023;SDS011;23834;48.080;11.682;2022-12-07T01:33:47;4.00;;;3.60;;
38023;SDS011;23834;48.080;11.682;2022-12-07T01:36:13;4.13;;;3.73;;
38023;SDS011;23834;48.080;11.682;2022-12-07T01:38:39;4.53;;;3.80;;
38023;SDS011;23834;48.080;11.682;2022-12-07T01:41:04;3.90;;;3.60;;
38023;SDS011;23834;48.080;11.682;2022-12-07T01:43:30;4.20;;;3.80;;
38023;SDS011;23834;48.080;11.682;2022-12-07T01:45:56;4.90;;;4.50;;
38023;SDS011;23834;48.080;11.682;2022-12-07T01:48:32;3.83;;;3.53;;
38023;SDS011;23834;48.080;11.682;2022-12-07T01:51:00;3.93;;;3.63;;
38023;SDS011;23834;48.080;11.682;2022-12-07T01:53:26;4.17;;;3.87;;
38023;SDS011;23834;48.080;11.682;2022-12-07T01:55:53;3.87;;;3.63;;
38023;SDS011;23834;48.080;11.682;2022-12-07T01:58:19;4.03;;;3.43;;
38023;SDS011;23834;48.080;11.682;2022-12-07T02:00:45;4.20;;;3.80;;
38023;SDS011;23834;48.080;11.682;2022-12-07T02:03:18;3.87;;;3.57;;
38023;SDS011;23834;48.080;11.682;2022-12-07T02:05:44;3.73;;;3.43;;
38023;SDS011;23834;48.080;11.682;2022-12-07T02:08:10;3.73;;;3.43;;
38023;SDS011;23834;48.080;11.682;2022-12-07T02:10:36;3.43;;;3.23;;
38023;SDS011;23834;48.080;11.682;2022-12-07T02:13:12;3.50;;;3.20;;
38023;SDS011;23834;48.080;11.682;2022-12-07T02:15:44;4.20;;;3.80;;
38023;SDS011;23834;48.080;11.682;2022-12-07T02:18:16;4.07;;;3.67;;
38023;SDS011;23834;48.080;11.682;2022-12-07T02:20:48;4.00;;;3.70;;
38023;SDS011;23834;48.080;11.682;2022-12-07T02:25:55;3.70;;;3.40;;
38023;SDS011;23834;48.080;11.682;2022-12-07T02:30:52;3.60;;;3.30;;
38023;SDS011;23834;48.080;11.682;2022-12-07T02:33:26;3.57;;;3.27;;
38023;SDS011;23834;48.080;11.682;2022-12-07T02:36:01;3.63;;;3.33;;
38023;SDS011;23834;48.080;11.682;2022-12-07T02:41:36;3.70;;;3.40;;
38023;SDS011;23834;48.080;11.682;2022-12-07T02:43:42;3.60;;;3.30;;
38023;SDS011;23834;48.080;11.682;2022-12-07T02:46:09;3.23;;;3.03;;
38023;SDS011;23834;48.080;11.682;2022-12-07T02:48:35;4.60;;;3.53;;
38023;SDS011;23834;48.080;11.682;2022-12-07T02:51:02;3.87;;;3.53;;
38023;SDS011;23834;48.080;11.682;2022-12-07T02:55:55;3.63;;;3.33;;
38023;SDS011;23834;48.080;11.682;2022-12-07T02:58:31;3.37;;;3.07;;
38023;SDS011;23834;48.080;11.682;2022-12-07T03:03:28;3.53;;;3.23;;
38023;SDS011;23834;48.080;11.682;2022-12-07T03:08:48;4.10;;;3.80;;
38023;SDS011;23834;48.080;11.682;2022-12-07T03:11:12;3.97;;;3.50;;
38023;SDS011;23834;48.080;11.682;2022-12-07T03:13:43;3.47;;;3.13;;
38023;SDS011;23834;48.080;11.682;2022-12-07T03:16:14;3.73;;;3.50;;
38023;SDS011;23834;48.080;11.682;2022-12-07T03:18:45;3.03;;;2.83;;
38023;SDS011;23834;48.080;11.682;2022-12-07T03:21:13;3.47;;;3.27;;
38023;SDS011;23834;48.080;11.682;2022-12-07T03:23:40;3.17;;;2.90;;
38023;SDS011;23834;48.080;11.682;2022-12-07T03:26:06;3.60;;;3.37;;
38023;SDS011;23834;48.080;11.682;2022-12-07T03:28:35;3.87;;;3.37;;
38023;SDS011;23834;48.080;11.682;2022-12-07T03:31:12;3.93;;;3.50;;
38023;SDS011;23834;48.080;11.682;2022-12-07T03:33:46;3.33;;;3.13;;
38023;SDS011;23834;48.080;11.682;2022-12-07T03:36:19;3.20;;;3.00;;
38023;SDS011;23834;48.080;11.682;2022-12-07T03:39:49;3.50;;;3.20;;
38023;SDS011;23834;48.080;11.682;2022-12-07T03:41:40;3.20;;;3.00;;
38023;SDS011;23834;48.080;11.682;2022-12-07T03:44:06;3.40;;;3.13;;
38023;SDS011;23834;48.080;11.682;2022-12-07T03:46:34;3.93;;;3.63;;
38023;SDS011;23834;48.080;11.682;2022-12-07T03:49:49;3.67;;;3.20;;
38023;SDS011;23834;48.080;11.682;2022-12-07T03:56:43;4.00;;;3.67;;
38023;SDS011;23834;48.080;11.682;2022-12-07T03:59:09;4.60;;;3.70;;
38023;SDS011;23834;48.080;11.682;2022-12-07T04:01:34;4.17;;;3.70;;
38023;SDS011;23834;48.080;11.682;2022-12-07T04:04:00;3.83;;;3.53;;
38023;SDS011;23834;48.080;11.682;2022-12-07T04:06:25;4.07;;;3.77;;
38023;SDS011;23834;48.080;11.682;2022-12-07T04:08:50;3.50;;;3.20;;
38023;SDS011;23834;48.080;11.682;2022-12-07T04:11:15;3.33;;;3.07;;
38023;SDS011;23834;48.080;11.682;2022-12-07T04:13:40;3.40;;;3.10;;
38023;SDS011;23834;48.080;11.682;2022-12-07T04:16:24;3.27;;;3.07;;
38023;SDS011;23834;48.080;11.682;2022-12-07T04:18:49;4.00;;;3.70;;
38023;SDS011;23834;48.080;11.682;2022-12-07T04:21:15;3.33;;;3.13;;
38023;SDS011;23834;48.080;11.682;2022-12-07T04:23:40;4.00;;;3.70;;
38023;SDS011;23834;48.080;11.682;2022-12-07T04:26:05;3.20;;;3.00;;
38023;SDS011;23834;48.080;11.682;2022-12-07T04:28:30;3.53;;;3.23;;
38023;SDS011;23834;48.080;11.682;2022-12-07T04:30:55;3.67;;;3.47;;
38023;SDS011;23834;48.080;11.682;2022-12-07T04:33:21;3.37;;;3.07;;
38023;SDS011;23834;48.080;11.682;2022-12-07T04:35:46;3.60;;;3.33;;
38023;SDS011;23834;48.080;11.682;2022-12-07T04:38:11;3.63;;;3.20;;
38023;SDS011;23834;48.080;11.682;2022-12-07T04:40:36;3.83;;;3.53;;
38023;SDS011;23834;48.080;11.682;2022-12-07T04:43:01;3.77;;;3.47;;
38023;SDS011;23834;48.080;11.682;2022-12-07T04:45:26;3.53;;;3.23;;
38023;SDS011;23834;48.080;11.682;2022-12-07T04:47:52;3.37;;;3.07;;
38023;SDS011;23834;48.080;11.682;2022-12-07T04:50:17;4.40;;;3.67;;
38023;SDS011;23834;48.080;11.682;2022-12-07T04:52:42;3.70;;;3.40;;
38023;SDS011;23834;48.080;11.682;2022-12-07T04:55:07;3.90;;;3.53;;
38023;SDS011;23834;48.080;11.682;2022-12-07T04:57:33;3.70;;;3.43;;
38023;SDS011;23834;48.080;11.682;2022-12-07T04:59:58;3.37;;;3.13;;
38023;SDS011;23834;48.080;11.682;2022-12-07T05:02:23;3.50;;;3.20;;
38023;SDS011;23834;48.080;11.682;2022-12-07T05:04:48;3.80;;;3.43;;
38023;SDS011;23834;48.080;11.682;2022-12-07T05:07:13;2.90;;;2.70;;
38023;SDS011;23834;48.080;11.682;2022-12-07T05:09:39;4.10;;;3.70;;
38023;SDS011;23834;48.080;11.682;2022-12-07T05:12:04;4.10;;;3.80;;
38023;SDS011;23834;48.080;11.682;2022-12-07T05:14:29;3.50;;;3.20;;
38023;SDS011;23834;48.080;11.682;2022-12-07T05:16:54;3.43;;;3.20;;
38023;SDS011;23834;48.080;11.682;2022-12-07T05:19:19;4.25;;;3.85;;
38023;SDS011;23834;48.080;11.682;2022-12-07T05:21:45;3.90;;;3.60;;
38023;SDS011;23834;48.080;11.682;2022-12-07T05:24:11;3.60;;;3.33;;
38023;SDS011;23834;48.080;11.682;2022-12-07T05:26:37;3.70;;;3.40;;
38023;SDS011;23834;48.080;11.682;2022-12-07T05:29:02;3.40;;;3.10;;
38023;SDS011;23834;48.080;11.682;2022-12-07T05:31:28;2.80;;;2.63;;
38023;SDS011;23834;48.080;11.682;2022-12-07T05:33:53;4.37;;;3.57;;
38023;SDS011;23834;48.080;11.682;2022-12-07T05:36:18;3.50;;;3.30;;
38023;SDS011;23834;48.080;11.682;2022-12-07T05:38:44;3.60;;;3.30;;
38023;SDS011;23834;48.080;11.682;2022-12-07T05:41:09;3.80;;;3.50;;
38023;SDS011;23834;48.080;11.682;2022-12-07T05:43:57;3.27;;;3.07;;
38023;SDS011;23834;48.080;11.682;2022-12-07T05:46:22;3.80;;;3.50;;
38023;SDS011;23834;48.080;11.682;2022-12-07T05:48:47;3.50;;;3.30;;
38023;SDS011;23834;48.080;11.682;2022-12-07T05:51:12;3.30;;;3.10;;
38023;SDS011;23834;48.080;11.682;2022-12-07T05:53:37;3.53;;;3.23;;
38023;SDS011;23834;48.080;11.682;2022-12-07T05:56:03;3.57;;;3.23;;
38023;SDS011;23834;48.080;11.682;2022-12-07T05:58:28;4.17;;;3.87;;
38023;SDS011;23834;48.080;11.682;2022-12-07T06:01:12;3.83;;;3.53;;
38023;SDS011;23834;48.080;11.682;2022-12-07T06:03:37;3.20;;;2.97;;
38023;SDS011;23834;48.080;11.682;2022-12-07T06:06:02;4.00;;;3.60;;
38023;SDS011;23834;48.080;11.682;2022-12-07T06:08:27;3.73;;;3.43;;
38023;SDS011;23834;48.080;11.682;2022-12-07T06:10:52;3.70;;;3.40;;
38023;SDS011;23834;48.080;11.682;2022-12-07T06:13:38;3.00;;;2.80;;
38023;SDS011;23834;48.080;11.682;2022-12-07T06:16:03;3.50;;;3.20;;
38023;SDS011;23834;48.080;11.682;2022-12-07T06:18:28;3.30;;;2.97;;
38023;SDS011;23834;48.080;11.682;2022-12-07T06:20:53;4.03;;;3.00;;
38023;SDS011;23834;48.080;11.682;2022-12-07T06:23:18;3.57;;;3.30;;
38023;SDS011;23834;48.080;11.682;2022-12-07T06:25:45;3.27;;;2.97;;
38023;SDS011;23834;48.080;11.682;2022-12-07T06:28:10;3.63;;;3.33;;
38023;SDS011;23834;48.080;11.682;2022-12-07T06:30:35;3.80;;;3.47;;
38023;SDS011;23834;48.080;11.682;2022-12-07T06:33:01;3.17;;;2.87;;
38023;SDS011;23834;48.080;11.682;2022-12-07T06:35:26;3.53;;;3.23;;
38023;SDS011;23834;48.080;11.682;2022-12-07T06:37:51;3.57;;;3.27;;
38023;SDS011;23834;48.080;11.682;2022-12-07T06:40:16;3.23;;;3.03;;
38023;SDS011;23834;48.080;11.682;2022-12-07T06:42:41;3.20;;;2.97;;
38023;SDS011;23834;48.080;11.682;2022-12-07T06:45:07;3.70;;;3.40;;
38023;SDS011;23834;48.080;11.682;2022-12-07T06:47:32;3.43;;;3.17;;
38023;SDS011;23834;48.080;11.682;2022-12-07T06:49:57;3.53;;;3.23;;
38023;SDS011;23834;48.080;11.682;2022-12-07T06:52:22;3.13;;;2.93;;
38023;SDS011;23834;48.080;11.682;2022-12-07T06:54:48;3.30;;;3.03;;
38023;SDS011;23834;48.080;11.682;2022-12-07T06:57:13;3.40;;;3.10;;
38023;SDS011;23834;48.080;11.682;2022-12-07T06:59:38;3.10;;;2.90;;
38023;SDS011;23834;48.080;11.682;2022-12-07T07:02:03;4.40;;;3.50;;
38023;SDS011;23834;48.080;11.682;2022-12-07T07:04:28;4.20;;;3.80;;
38023;SDS011;23834;48.080;11.682;2022-12-07T07:06:54;3.20;;;3.00;;
38023;SDS011;23834;48.080;11.682;2022-12-07T07:09:19;3.10;;;2.90;;
38023;SDS011;23834;48.080;11.682;2022-12-07T07:11:44;3.53;;;3.27;;
38023;SDS011;23834;48.080;11.682;2022-12-07T07:14:09;3.63;;;3.33;;
38023;SDS011;23834;48.080;11.682;2022-12-07T07:16:35;3.37;;;3.17;;
38023;SDS011;23834;48.080;11.682;2022-12-07T07:19:00;3.40;;;3.20;;
38023;SDS011;23834;48.080;11.682;2022-12-07T07:21:25;3.60;;;3.07;;
38023;SDS011;23834;48.080;11.682;2022-12-07T07:23:50;3.20;;;2.97;;
38023;SDS011;23834;48.080;11.682;2022-12-07T07:26:16;3.47;;;3.17;;
38023;SDS011;23834;48.080;11.682;2022-12-07T07:28:42;3.50;;;3.20;;
38023;SDS011;23834;48.080;11.682;2022-12-07T07:31:07;3.67;;;3.33;;
38023;SDS011;23834;48.080;11.682;2022-12-07T07:33:32;3.63;;;3.37;;
38023;SDS011;23834;48.080;11.682;2022-12-07T07:35:57;3.73;;;3.43;;
38023;SDS011;23834;48.080;11.682;2022-12-07T07:38:23;3.40;;;3.20;;
38023;SDS011;23834;48.080;11.682;2022-12-07T07:40:48;3.80;;;3.50;;
38023;SDS011;23834;48.080;11.682;2022-12-07T07:43:13;3.67;;;3.37;;
38023;SDS011;23834;48.080;11.682;2022-12-07T07:45:38;4.20;;;3.77;;
38023;SDS011;23834;48.080;11.682;2022-12-07T07:48:04;4.83;;;3.07;;
38023;SDS011;23834;48.080;11.682;2022-12-07T07:50:29;3.50;;;3.20;;
38023;SDS011;23834;48.080;11.682;2022-12-07T07:52:54;3.37;;;3.07;;
38023;SDS011;23834;48.080;11.682;2022-12-07T07:55:19;4.63;;;3.23;;
38023;SDS011;23834;48.080;11.682;2022-12-07T07:57:44;3.67;;;3.37;;
38023;SDS011;23834;48.080;11.682;2022-12-07T08:00:10;4.37;;;3.17;;
38023;SDS011;23834;48.080;11.682;2022-12-07T08:02:37;3.27;;;3.07;;
38023;SDS011;23834;48.080;11.682;2022-12-07T08:05:03;2.87;;;2.67;;
38023;SDS011;23834;48.080;11.682;2022-12-07T08:07:28;3.10;;;2.90;;
38023;SDS011;23834;48.080;11.682;2022-12-07T08:09:53;3.17;;;2.93;;
38023;SDS011;23834;48.080;11.682;2022-12-07T08:12:18;4.07;;;3.70;;
38023;SDS011;23834;48.080;11.682;2022-12-07T08:14:44;3.47;;;3.27;;
38023;SDS011;23834;48.080;11.682;2022-12-07T08:17:09;3.30;;;3.10;;
38023;SDS011;23834;48.080;11.682;2022-12-07T08:19:34;3.20;;;3.00;;
38023;SDS011;23834;48.080;11.682;2022-12-07T08:21:59;3.83;;;3.50;;
38023;SDS011;23834;48.080;11.682;2022-12-07T08:24:24;3.60;;;3.20;;
38023;SDS011;23834;48.080;11.682;2022-12-07T08:26:50;3.47;;;3.17;;
38023;SDS011;23834;48.080;11.682;2022-12-07T08:29:15;3.30;;;3.00;;
38023;SDS011;23834;48.080;11.682;2022-12-07T08:31:40;3.73;;;3.30;;
38023;SDS011;23834;48.080;11.682;2022-12-07T08:34:06;3.40;;;3.10;;
38023;SDS011;23834;48.080;11.682;2022-12-07T08:36:31;3.00;;;2.80;;
38023;SDS011;23834;48.080;11.682;2022-12-07T08:38:56;3.60;;;3.40;;
38023;SDS011;23834;48.080;11.682;2022-12-07T08:41:21;3.50;;;3.20;;
38023;SDS011;23834;48.080;11.682;2022-12-07T08:43:46;3.27;;;3.00;;
38023;SDS011;23834;48.080;11.682;2022-12-07T08:46:21;3.40;;;3.10;;
38023;SDS011;23834;48.080;11.682;2022-12-07T08:51:16;3.73;;;3.20;;
38023;SDS011;23834;48.080;11.682;2022-12-07T08:53:41;3.80;;;3.50;;
38023;SDS011;23834;48.080;11.682;2022-12-07T08:56:07;3.40;;;3.10;;
38023;SDS011;23834;48.080;11.682;2022-12-07T08:58:33;3.37;;;3.00;;
38023;SDS011;23834;48.080;11.682;2022-12-07T09:01:00;3.87;;;3.20;;
38023;SDS011;23834;48.080;11.682;2022-12-07T09:03:25;2.77;;;2.57;;
38023;SDS011;23834;48.080;11.682;2022-12-07T09:05:50;12.60;;;5.10;;
38023;SDS011;23834;48.080;11.682;2022-12-07T09:08:15;10.57;;;5.07;;
38023;SDS011;23834;48.080;11.682;2022-12-07T09:10:41;12.00;;;4.77;;
38023;SDS011;23834;48.080;11.682;2022-12-07T09:13:06;8.57;;;4.17;;
38023;SDS011;23834;48.080;11.682;2022-12-07T09:15:31;7.17;;;4.50;;
38023;SDS011;23834;48.080;11.682;2022-12-07T09:17:56;9.97;;;4.30;;
38023;SDS011;23834;48.080;11.682;2022-12-07T09:20:22;8.20;;;3.93;;
38023;SDS011;23834;48.080;11.682;2022-12-07T09:22:47;9.47;;;4.30;;
38023;SDS011;23834;48.080;11.682;2022-12-07T09:25:12;6.60;;;3.90;;
38023;SDS011;23834;48.080;11.682;2022-12-07T09:27:38;7.30;;;4.17;;
38023;SDS011;23834;48.080;11.682;2022-12-07T09:30:03;6.00;;;3.83;;
38023;SDS011;23834;48.080;11.682;2022-12-07T09:32:29;4.50;;;3.90;;
38023;SDS011;23834;48.080;11.682;2022-12-07T09:34:54;6.87;;;3.80;;
38023;SDS011;23834;48.080;11.682;2022-12-07T09:37:20;4.23;;;3.83;;
38023;SDS011;23834;48.080;11.682;2022-12-07T09:39:45;5.00;;;3.80;;
38023;SDS011;23834;48.080;11.682;2022-12-07T09:42:10;5.40;;;4.10;;
38023;SDS011;23834;48.080;11.682;2022-12-07T09:44:43;4.37;;;3.97;;
38023;SDS011;23834;48.080;11.682;2022-12-07T09:47:09;6.23;;;3.70;;
38023;SDS011;23834;48.080;11.682;2022-12-07T09:49:35;4.47;;;3.43;;
38023;SDS011;23834;48.080;11.682;2022-12-07T09:52:01;4.70;;;3.70;;
38023;SDS011;23834;48.080;11.682;2022-12-07T09:54:27;5.53;;;3.80;;
38023;SDS011;23834;48.080;11.682;2022-12-07T09:56:53;6.27;;;4.20;;
38023;SDS011;23834;48.080;11.682;2022-12-07T09:59:18;5.10;;;4.10;;
38023;SDS011;23834;48.080;11.682;2022-12-07T10:01:44;4.50;;;4.10;;
38023;SDS011;23834;48.080;11.682;2022-12-07T10:04:11;5.60;;;4.30;;
38023;SDS011;23834;48.080;11.682;2022-12-07T10:06:38;5.60;;;4.07;;
38023;SDS011;23834;48.080;11.682;2022-12-07T10:09:08;4.50;;;3.73;;
38023;SDS011;23834;48.080;11.682;2022-12-07T10:11:34;4.30;;;3.90;;
38023;SDS011;23834;48.080;11.682;2022-12-07T10:14:10;4.17;;;3.77;;
38023;SDS011;23834;48.080;11.682;2022-12-07T10:16:38;4.90;;;4.50;;
38023;SDS011;23834;48.080;11.682;2022-12-07T10:22:03;4.37;;;3.97;;
38023;SDS011;23834;48.080;11.682;2022-12-07T10:24:29;4.93;;;4.00;;
38023;SDS011;23834;48.080;11.682;2022-12-07T10:26:55;4.40;;;3.70;;
38023;SDS011;23834;48.080;11.682;2022-12-07T10:29:38;4.43;;;3.63;;
38023;SDS011;23834;48.080;11.682;2022-12-07T10:34:38;4.87;;;3.93;;
38023;SDS011;23834;48.080;11.682;2022-12-07T10:42:09;4.03;;;3.73;;
38023;SDS011;23834;48.080;11.682;2022-12-07T10:44:40;4.90;;;3.87;;
38023;SDS011;23834;48.080;11.682;2022-12-07T10:49:55;3.90;;;3.60;;
38023;SDS011;23834;48.080;11.682;2022-12-07T10:55:08;4.33;;;3.47;;
38023;SDS011;23834;48.080;11.682;2022-12-07T11:00:20;5.30;;;4.20;;
38023;SDS011;23834;48.080;11.682;2022-12-07T11:05:35;5.30;;;4.17;;
38023;SDS011;23834;48.080;11.682;2022-12-07T11:10:55;4.37;;;3.97;;
38023;SDS011;23834;48.080;11.682;2022-12-07T11:23:25;4.47;;;4.07;;
38023;SDS011;23834;48.080;11.682;2022-12-07T11:26:04;4.27;;;3.87;;
38023;SDS011;23834;48.080;11.682;2022-12-07T11:28:40;4.40;;;4.00;;
38023;SDS011;23834;48.080;11.682;2022-12-07T11:38:44;4.27;;;3.87;;
38023;SDS011;23834;48.080;11.682;2022-12-07T11:41:10;4.50;;;4.10;;
38023;SDS011;23834;48.080;11.682;2022-12-07T11:43:56;4.07;;;3.67;;
38023;SDS011;23834;48.080;11.682;2022-12-07T11:46:24;4.20;;;3.80;;
38023;SDS011;23834;48.080;11.682;2022-12-07T11:48:58;5.17;;;3.70;;
38023;SDS011;23834;48.080;11.682;2022-12-07T11:51:26;3.90;;;3.60;;
38023;SDS011;23834;48.080;11.682;2022-12-07T11:53:54;4.20;;;3.90;;
38023;SDS011;23834;48.080;11.682;2022-12-07T11:56:21;3.83;;;3.50;;
38023;SDS011;23834;48.080;11.682;2022-12-07T12:06:43;3.50;;;3.20;;
38023;SDS011;23834;48.080;11.682;2022-12-07T12:19:23;3.73;;;3.43;;
38023;SDS011;23834;48.080;11.682;2022-12-07T12:21:53;3.70;;;3.40;;
38023;SDS011;23834;48.080;11.682;2022-12-07T12:24:22;3.70;;;3.00;;
38023;SDS011;23834;48.080;11.682;2022-12-07T12:26:50;3.40;;;3.10;;
38023;SDS011;23834;48.080;11.682;2022-12-07T12:29:21;3.40;;;3.03;;
38023;SDS011;23834;48.080;11.682;2022-12-07T12:32:04;3.83;;;3.00;;
38023;SDS011;23834;48.080;11.682;2022-12-07T12:42:44;3.80;;;3.53;;
38023;SDS011;23834;48.080;11.682;2022-12-07T12:45:22;3.30;;;3.10;;
38023;SDS011;23834;48.080;11.682;2022-12-07T12:47:53;3.87;;;3.53;;
38023;SDS011;23834;48.080;11.682;2022-12-07T12:52:49;3.60;;;3.30;;
38023;SDS011;23834;48.080;11.682;2022-12-07T12:55:16;3.20;;;2.90;;
38023;SDS011;23834;48.080;11.682;2022-12-07T12:57:46;3.20;;;2.90;;
38023;SDS011;23834;48.080;11.682;2022-12-07T13:02:56;3.93;;;3.60;;
38023;SDS011;23834;48.080;11.682;2022-12-07T13:05:27;3.13;;;2.90;;
38023;SDS011;23834;48.080;11.682;2022-12-07T13:08:11;3.37;;;3.17;;
38023;SDS011;23834;48.080;11.682;2022-12-07T13:10:41;3.30;;;3.10;;
38023;SDS011;23834;48.080;11.682;2022-12-07T13:15:46;3.33;;;3.03;;
38023;SDS011;23834;48.080;11.682;2022-12-07T13:23:36;3.30;;;3.07;;
38023;SDS011;23834;48.080;11.682;2022-12-07T13:28:35;3.17;;;2.97;;
38023;SDS011;23834;48.080;11.682;2022-12-07T13:31:09;3.77;;;2.70;;
38023;SDS011;23834;48.080;11.682;2022-12-07T13:33:36;2.87;;;2.67;;
38023;SDS011;23834;48.080;11.682;2022-12-07T13:36:01;3.20;;;2.97;;
38023;SDS011;23834;48.080;11.682;2022-12-07T13:38:28;3.37;;;3.07;;
38023;SDS011;23834;48.080;11.682;2022-12-07T13:43:49;3.40;;;3.10;;
38023;SDS011;23834;48.080;11.682;2022-12-07T13:46:15;4.10;;;3.07;;
38023;SDS011;23834;48.080;11.682;2022-12-07T13:51:14;2.97;;;2.70;;
38023;SDS011;23834;48.080;11.682;2022-12-07T13:53:46;3.30;;;3.10;;
38023;SDS011;23834;48.080;11.682;2022-12-07T13:56:12;3.37;;;3.07;;
38023;SDS011;23834;48.080;11.682;2022-12-07T13:58:38;3.20;;;2.83;;
38023;SDS011;23834;48.080;11.682;2022-12-07T14:01:03;3.23;;;3.00;;
38023;SDS011;23834;48.080;11.682;2022-12-07T14:03:33;2.90;;;2.70;;
38023;SDS011;23834;48.080;11.682;2022-12-07T14:06:07;3.60;;;3.30;;
38023;SDS011;23834;48.080;11.682;2022-12-07T14:08:37;2.80;;;2.60;;
38023;SDS011;23834;48.080;11.682;2022-12-07T14:11:02;3.00;;;2.80;;
38023;SDS011;23834;48.080;11.682;2022-12-07T14:13:32;2.93;;;2.73;;
38023;SDS011;23834;48.080;11.682;2022-12-07T14:15:59;3.50;;;3.20;;
38023;SDS011;23834;48.080;11.682;2022-12-07T14:18:38;3.13;;;2.93;;
38023;SDS011;23834;48.080;11.682;2022-12-07T14:21:14;2.73;;;2.53;;
38023;SDS011;23834;48.080;11.682;2022-12-07T14:23:40;3.57;;;3.27;;
38023;SDS011;23834;48.080;11.682;2022-12-07T14:28:33;3.60;;;3.30;;
38023;SDS011;23834;48.080;11.682;2022-12-07T14:30:59;3.60;;;3.30;;
38023;SDS011;23834;48.080;11.682;2022-12-07T14:33:24;3.37;;;3.07;;
38023;SDS011;23834;48.080;11.682;2022-12-07T14:35:50;3.37;;;3.03;;
38023;SDS011;23834;48.080;11.682;2022-12-07T14:38:15;3.20;;;2.90;;
38023;SDS011;23834;48.080;11.682;2022-12-07T14:40:40;3.67;;;3.37;;
38023;SDS011;23834;48.080;11.682;2022-12-07T14:43:09;3.10;;;2.83;;
38023;SDS011;23834;48.080;11.682;2022-12-07T14:45:35;3.17;;;2.97;;
38023;SDS011;23834;48.080;11.682;2022-12-07T14:48:01;3.70;;;3.40;;
38023;SDS011;23834;48.080;11.682;2022-12-07T14:50:26;3.23;;;2.80;;
38023;SDS011;23834;48.080;11.682;2022-12-07T14:52:55;3.83;;;3.40;;
38023;SDS011;23834;48.080;11.682;2022-12-07T14:55:27;3.40;;;3.10;;
38023;SDS011;23834;48.080;11.682;2022-12-07T14:57:53;3.33;;;3.13;;
38023;SDS011;23834;48.080;11.682;2022-12-07T15:00:18;3.20;;;2.90;;
38023;SDS011;23834;48.080;11.682;2022-12-07T15:02:45;3.40;;;3.10;;
38023;SDS011;23834;48.080;11.682;2022-12-07T15:05:11;3.20;;;2.90;;
38023;SDS011;23834;48.080;11.682;2022-12-07T15:07:36;3.47;;;2.83;;
38023;SDS011;23834;48.080;11.682;2022-12-07T15:10:01;3.10;;;2.80;;
38023;SDS011;23834;48.080;11.682;2022-12-07T15:12:26;3.53;;;3.23;;
38023;SDS011;23834;48.080;11.682;2022-12-07T15:14:52;3.13;;;2.90;;
38023;SDS011;23834;48.080;11.682;2022-12-07T15:17:17;3.40;;;3.10;;
38023;SDS011;23834;48.080;11.682;2022-12-07T15:19:42;3.23;;;3.03;;
38023;SDS011;23834;48.080;11.682;2022-12-07T15:22:08;3.13;;;2.83;;
38023;SDS011;23834;48.080;11.682;2022-12-07T15:24:35;3.80;;;3.50;;
38023;SDS011;23834;48.080;11.682;2022-12-07T15:27:00;3.37;;;3.10;;
38023;SDS011;23834;48.080;11.682;2022-12-07T15:29:25;3.63;;;3.33;;
38023;SDS011;23834;48.080;11.682;2022-12-07T15:31:51;3.60;;;3.37;;
38023;SDS011;23834;48.080;11.682;2022-12-07T15:34:16;3.57;;;3.27;;
38023;SDS011;23834;48.080;11.682;2022-12-07T15:36:41;3.80;;;3.50;;
38023;SDS011;23834;48.080;11.682;2022-12-07T15:39:07;4.33;;;3.20;;
38023;SDS011;23834;48.080;11.682;2022-12-07T15:41:33;3.80;;;3.50;;
38023;SDS011;23834;48.080;11.682;2022-12-07T15:43:59;4.20;;;3.90;;
38023;SDS011;23834;48.080;11.682;2022-12-07T15:46:43;3.63;;;3.33;;
38023;SDS011;23834;48.080;11.682;2022-12-07T15:49:13;3.20;;;3.00;;
38023;SDS011;23834;48.080;11.682;2022-12-07T15:51:40;4.03;;;3.50;;
38023;SDS011;23834;48.080;11.682;2022-12-07T15:54:05;3.93;;;3.33;;
38023;SDS011;23834;48.080;11.682;2022-12-07T15:56:30;4.10;;;3.80;;
38023;SDS011;23834;48.080;11.682;2022-12-07T15:58:56;4.33;;;3.73;;
38023;SDS011;23834;48.080;11.682;2022-12-07T16:01:21;3.90;;;3.60;;
38023;SDS011;23834;48.080;11.682;2022-12-07T16:03:46;3.70;;;3.40;;
38023;SDS011;23834;48.080;11.682;2022-12-07T16:06:12;3.97;;;3.50;;
38023;SDS011;23834;48.080;11.682;2022-12-07T16:08:40;4.30;;;3.90;;
38023;SDS011;23834;48.080;11.682;2022-12-07T16:11:06;4.03;;;3.73;;
38023;SDS011;23834;48.080;11.682;2022-12-07T16:13:32;4.40;;;4.00;;
38023;SDS011;23834;48.080;11.682;2022-12-07T16:15:57;3.87;;;3.57;;
38023;SDS011;23834;48.080;11.682;2022-12-07T16:18:22;4.37;;;3.97;;
38023;SDS011;23834;48.080;11.682;2022-12-07T16:20:48;3.63;;;3.40;;
38023;SDS011;23834;48.080;11.682;2022-12-07T16:23:14;3.80;;;3.50;;
38023;SDS011;23834;48.080;11.682;2022-12-07T16:25:39;4.13;;;3.77;;
38023;SDS011;23834;48.080;11.682;2022-12-07T16:28:04;4.23;;;3.93;;